Time;durP1;ratioP1;P1;durP2;ratioP2;P2;SDS_P1;SDS_P2;PMS_P1;PMS_P2;Temp;Humidity;BMP_temperature;BMP_pressure;BME280_temperature;BME280_humidity;BME280_pressure;Samples;Min_cycle;Max_cycle;Signal;HPM_P1;HPM_P2
2023/07/14 00:01:19;;;;;;;7.80;2.70;;;;;;;15.38;85.67;99773.14;108974;1258;57306;-61
2023/07/14 00:04:26;;;;;;;7.40;2.70;;;;;;;15.33;86.02;99776.31;108976;1258;60340;-62
2023/07/14 00:07:25;;;;;;;7.70;2.50;;;;;;;15.30;86.07;99775.66;108901;1258;73144;-62
2023/07/14 00:10:25;;;;;;;7.60;3.20;;;;;;;15.29;86.25;99774.84;108918;1259;67223;-63
2023/07/14 00:13:15;;;;;;;7.50;2.80;;;;;;;15.26;86.23;99776.23;108953;1259;72778;-65
2023/07/14 00:16:14;;;;;;;7.60;3.00;;;;;;;15.24;86.90;99781.33;108832;1258;61577;-60
2023/07/14 00:19:15;;;;;;;7.00;2.90;;;;;;;15.22;87.02;99785.95;108913;1259;60369;-61
2023/07/14 00:22:14;;;;;;;7.70;2.60;;;;;;;15.19;87.16;99790.17;109008;1258;71551;-64
2023/07/14 00:25:04;;;;;;;8.80;2.60;;;;;;;15.16;87.08;99788.02;108935;1259;67989;-64
2023/07/14 00:27:55;;;;;;;6.90;2.60;;;;;;;15.12;87.09;99789.46;108762;1258;263310;-61
2023/07/14 00:30:48;;;;;;;8.90;2.90;;;;;;;15.08;87.26;99791.14;108893;1259;58692;-64
2023/07/14 00:33:36;;;;;;;8.00;3.00;;;;;;;15.03;87.35;99795.17;108939;1259;60226;-62
2023/07/14 00:36:27;;;;;;;7.50;2.50;;;;;;;14.98;87.73;99792.68;108976;1258;73003;-61
2023/07/14 00:39:15;;;;;;;7.80;3.10;;;;;;;14.92;87.60;99794.89;108952;1258;66513;-62
2023/07/14 00:42:07;;;;;;;7.70;2.70;;;;;;;14.86;88.38;99790.29;108897;1258;72425;-62
2023/07/14 00:44:55;;;;;;;6.50;2.40;;;;;;;14.83;88.36;99797.23;108938;1258;58044;-63
2023/07/14 00:47:52;;;;;;;7.70;2.80;;;;;;;14.79;88.59;99793.89;108970;1259;58747;-61
2023/07/14 00:51:16;;;;;;;7.30;2.60;;;;;;;14.75;88.87;99792.77;109003;1259;72960;-63
2023/07/14 00:54:29;;;;;;;6.40;2.20;;;;;;;14.68;89.03;99788.19;108952;1258;67967;-63
2023/07/14 00:57:22;;;;;;;8.10;2.90;;;;;;;14.62;89.00;99786.04;108946;1258;72845;-64
2023/07/14 01:00:26;;;;;;;7.70;2.80;;;;;;;14.57;89.12;99787.02;108900;1259;57365;-63
2023/07/14 01:03:15;;;;;;;10.80;2.60;;;;;;;14.54;89.31;99787.02;108984;1259;60297;-64
2023/07/14 01:06:04;;;;;;;10.90;2.90;;;;;;;14.51;89.66;99791.45;108941;1258;71203;-63
2023/07/14 01:09:10;;;;;;;7.40;2.40;;;;;;;14.47;89.93;99788.38;108934;1258;66685;-62
2023/07/14 01:12:01;;;;;;;8.50;2.60;;;;;;;14.44;90.19;99791.02;108936;1259;73086;-64
2023/07/14 01:14:54;;;;;;;6.50;2.30;;;;;;;14.39;90.70;99794.91;108964;1259;57723;-62
2023/07/14 01:17:45;;;;;;;6.60;2.70;;;;;;;14.34;90.87;99795.05;108981;1258;60138;-62
2023/07/14 01:20:37;;;;;;;7.00;2.70;;;;;;;14.28;91.09;99793.08;108946;1259;72659;-62
2023/07/14 01:23:58;;;;;;;7.30;2.50;;;;;;;14.22;91.52;99798.46;108962;1258;67661;-65
2023/07/14 01:27:04;;;;;;;7.50;2.40;;;;;;;14.17;91.89;99802.19;108946;1258;73629;-64
2023/07/14 01:30:02;;;;;;;6.60;2.80;;;;;;;14.13;91.96;99803.66;109017;1259;60177;-63
2023/07/14 01:32:50;;;;;;;6.20;2.50;;;;;;;14.09;92.43;99809.77;108977;1258;60111;-62
2023/07/14 01:35:46;;;;;;;8.40;2.60;;;;;;;14.05;93.02;99812.48;108971;1258;71523;-63
2023/07/14 01:38:35;;;;;;;6.80;2.40;;;;;;;14.01;93.53;99814.09;108980;1258;67751;-64
2023/07/14 01:41:24;;;;;;;6.70;2.30;;;;;;;13.97;93.73;99813.74;108966;1259;72736;-64
2023/07/14 01:44:17;;;;;;;7.80;2.60;;;;;;;13.92;93.67;99814.02;108989;1259;57985;-63
2023/07/14 01:47:11;;;;;;;8.40;2.80;;;;;;;13.88;94.31;99812.98;109005;1259;59993;-63
2023/07/14 01:50:00;;;;;;;7.40;2.70;;;;;;;13.85;94.29;99817.56;108979;1258;72884;-61
2023/07/14 01:52:54;;;;;;;7.10;2.70;;;;;;;13.80;94.89;99819.98;108921;1258;66752;-62
2023/07/14 01:55:46;;;;;;;8.80;3.00;;;;;;;13.75;95.29;99822.04;108945;1259;72786;-62
2023/07/14 01:59:24;;;;;;;10.10;3.00;;;;;;;13.72;95.36;99826.11;108863;1259;59401;-65
2023/07/14 02:02:24;;;;;;;6.40;2.90;;;;;;;13.68;95.73;99829.30;108370;1268;61379;-64
2023/07/14 02:05:40;;;;;;;7.30;2.30;;;;;;;13.63;96.25;99830.86;108430;1266;74442;-61
2023/07/14 02:08:31;;;;;;;6.90;2.90;;;;;;;13.58;96.68;99833.77;108339;1267;66742;-61
2023/07/14 02:11:22;;;;;;;6.90;2.50;;;;;;;13.55;97.40;99833.36;108390;1266;73467;-64
2023/07/14 02:14:20;;;;;;;7.20;2.50;;;;;;;13.52;97.73;99837.21;108276;1267;60068;-62
2023/07/14 02:17:25;;;;;;;7.30;3.10;;;;;;;13.50;98.15;99839.00;108488;1266;58850;-64
2023/07/14 02:20:32;;;;;;;7.90;2.70;;;;;;;13.49;98.10;99843.41;108468;1267;71812;-61
2023/07/14 02:23:23;;;;;;;6.30;2.50;;;;;;;13.47;97.98;99848.53;108323;1267;66770;-63
2023/07/14 02:26:35;;;;;;;5.90;2.30;;;;;;;13.47;98.23;99846.30;108531;1267;73299;-62
2023/07/14 02:29:23;;;;;;;7.60;2.40;;;;;;;13.45;98.47;99848.38;108512;1267;58066;-63
2023/07/14 02:32:24;;;;;;;7.30;2.90;;;;;;;13.45;98.89;99849.45;108519;1267;59074;-61
2023/07/14 02:35:41;;;;;;;6.30;2.50;;;;;;;13.44;99.99;99854.56;108491;1268;73227;-61
2023/07/14 02:38:30;;;;;;;7.00;2.60;;;;;;;13.42;99.83;99859.12;108771;1258;68086;-62
2023/07/14 02:41:33;;;;;;;7.50;2.50;;;;;;;13.41;99.93;99863.52;108934;1258;73878;-64
2023/07/14 02:44:37;;;;;;;8.50;2.80;;;;;;;13.40;99.98;99866.70;108945;1258;59337;-63
2023/07/14 02:47:27;;;;;;;7.60;2.80;;;;;;;13.38;100.00;99863.33;108977;1258;60237;-62
2023/07/14 02:50:16;;;;;;;8.10;2.60;;;;;;;13.38;100.00;99866.31;109036;1262;71774;-62
2023/07/14 02:53:05;;;;;;;7.60;2.50;;;;;;;13.37;100.00;99863.91;109043;1258;68970;-61
2023/07/14 02:55:53;;;;;;;9.40;2.60;;;;;;;13.37;100.00;99870.05;108904;1259;73002;-63
2023/07/14 02:58:48;;;;;;;8.10;2.90;;;;;;;13.36;100.00;99865.78;108917;1259;59506;-61
2023/07/14 03:01:39;;;;;;;6.80;2.60;;;;;;;13.36;100.00;99863.13;108999;1259;60406;-60
2023/07/14 03:04:44;;;;;;;6.30;2.10;;;;;;;13.37;100.00;99864.42;108977;1259;73117;-62
2023/07/14 03:07:48;;;;;;;8.10;2.90;;;;;;;13.39;100.00;99868.36;108954;1258;68828;-63
2023/07/14 03:10:39;;;;;;;8.10;2.60;;;;;;;13.40;100.00;99862.96;109000;1259;72776;-61
2023/07/14 03:13:28;;;;;;;8.70;2.80;;;;;;;13.42;100.00;99864.30;108939;1258;59321;-62
2023/07/14 03:16:28;;;;;;;7.20;2.60;;;;;;;13.44;100.00;99866.80;109102;1259;58867;-63
2023/07/14 03:19:17;;;;;;;7.70;2.70;;;;;;;13.46;100.00;99865.23;109062;1257;73058;-61
2023/07/14 03:22:05;;;;;;;8.10;2.50;;;;;;;13.50;100.00;99867.59;109046;1257;68257;-63
2023/07/14 03:24:53;;;;;;;7.90;3.10;;;;;;;13.51;100.00;99866.17;108974;1258;70885;-62
2023/07/14 03:27:41;;;;;;;8.30;3.10;;;;;;;13.52;100.00;99861.15;109014;1259;59318;-61
2023/07/14 03:30:40;;;;;;;9.90;2.40;;;;;;;13.55;100.00;99868.65;108871;1260;60228;-63
2023/07/14 03:33:34;;;;;;;7.00;2.40;;;;;;;13.58;100.00;99870.14;108978;1258;72081;-63
2023/07/14 03:36:23;;;;;;;9.10;2.20;;;;;;;13.60;100.00;99874.60;108911;1258;66742;-64
2023/07/14 03:39:24;;;;;;;6.40;2.20;;;;;;;13.62;100.00;99872.64;108913;1257;71527;-63
2023/07/14 03:42:14;;;;;;;7.00;2.60;;;;;;;13.65;100.00;99870.78;108919;1259;59462;-62
2023/07/14 03:45:06;;;;;;;6.80;2.40;;;;;;;13.68;100.00;99873.69;109016;1257;61127;-64
2023/07/14 03:47:54;;;;;;;8.20;2.30;;;;;;;13.72;100.00;99875.19;109037;1258;74113;-64
2023/07/14 03:50:43;;;;;;;8.30;2.70;;;;;;;13.75;100.00;99875.90;108979;1257;67680;-65
2023/07/14 03:53:45;;;;;;;8.20;2.60;;;;;;;13.81;100.00;99873.41;108979;1259;75126;-63
2023/07/14 03:56:34;;;;;;;8.50;2.50;;;;;;;13.85;100.00;99877.28;109077;1259;58151;-62
2023/07/14 03:59:22;;;;;;;9.20;2.70;;;;;;;13.90;100.00;99871.86;108961;1258;58819;-63
2023/07/14 04:02:09;;;;;;;9.40;3.00;;;;;;;13.98;100.00;99877.72;109050;1259;71789;-62
2023/07/14 04:05:07;;;;;;;6.90;2.20;;;;;;;14.01;100.00;99873.33;108919;1259;68199;-65
2023/07/14 04:07:56;;;;;;;7.30;2.40;;;;;;;14.12;100.00;99882.77;108991;1258;72852;-64
2023/07/14 04:10:44;;;;;;;9.20;2.30;;;;;;;14.22;100.00;99884.89;109013;1259;60415;-64
2023/07/14 04:13:33;;;;;;;7.80;2.70;;;;;;;14.29;100.00;99885.09;109003;1259;57767;-63
2023/07/14 04:16:23;;;;;;;8.80;2.50;;;;;;;14.37;100.00;99892.33;108981;1259;74057;-61
2023/07/14 04:19:11;;;;;;;6.60;2.30;;;;;;;14.46;100.00;99888.82;109012;1259;66314;-65
2023/07/14 04:22:03;;;;;;;7.00;2.40;;;;;;;14.56;100.00;99883.74;108889;1259;73353;-62
2023/07/14 04:24:51;;;;;;;6.90;2.10;;;;;;;14.67;100.00;99890.23;108902;1259;59759;-61
2023/07/14 04:27:39;;;;;;;6.70;2.20;;;;;;;14.79;100.00;99890.84;108959;1257;58940;-63
2023/07/14 04:30:27;;;;;;;7.10;2.30;;;;;;;14.91;100.00;99894.95;108947;1259;73008;-62
2023/07/14 04:33:16;;;;;;;8.60;2.50;;;;;;;15.06;99.94;99897.14;108996;1258;67710;-61
2023/07/14 04:36:05;;;;;;;7.90;2.50;;;;;;;15.20;99.35;99902.14;108909;1258;71358;-65
2023/07/14 04:39:10;;;;;;;9.50;2.40;;;;;;;15.38;98.59;99907.98;108912;1258;59421;-63
2023/07/14 04:41:58;;;;;;;9.30;2.20;;;;;;;15.61;97.34;99911.94;109049;1262;58796;-63
2023/07/14 04:44:46;;;;;;;7.30;2.20;;;;;;;15.87;96.05;99911.36;108963;1257;73913;-61
2023/07/14 04:47:34;;;;;;;7.80;2.30;;;;;;;16.18;94.12;99901.03;108970;1262;67731;-62
2023/07/14 04:50:25;;;;;;;7.50;2.20;;;;;;;16.55;92.01;99905.09;109007;1257;71418;-60
2023/07/14 04:53:15;;;;;;;7.50;2.00;;;;;;;17.08;90.45;99901.97;109016;1257;57659;-62
2023/07/14 04:56:03;;;;;;;6.90;1.90;;;;;;;17.73;86.53;99903.00;109026;1257;59085;-61
2023/07/14 04:58:52;;;;;;;7.40;2.00;;;;;;;18.40;83.53;99900.04;109092;1258;71774;-65
2023/07/14 05:01:41;;;;;;;6.60;1.80;;;;;;;19.08;79.99;99904.57;108843;1257;68101;-65
2023/07/14 05:04:36;;;;;;;6.90;1.80;;;;;;;19.74;76.16;99902.77;108903;1257;72591;-60
2023/07/14 05:07:35;;;;;;;7.90;1.50;;;;;;;20.39;73.22;99895.65;108919;1258;57337;-63
2023/07/14 05:10:25;;;;;;;6.30;1.60;;;;;;;20.99;70.58;99898.42;109002;1257;60437;-67
2023/07/14 05:13:16;;;;;;;9.10;1.60;;;;;;;21.56;68.19;99899.03;109009;1257;72857;-63
2023/07/14 05:16:12;;;;;;;5.60;1.30;;;;;;;22.07;64.85;99899.30;109035;1258;67987;-64
2023/07/14 05:19:01;;;;;;;7.00;1.50;;;;;;;22.55;63.72;99899.96;108922;1259;72591;-61
2023/07/14 05:21:49;;;;;;;6.30;1.50;;;;;;;23.08;62.24;99900.06;108930;1260;57906;-65
2023/07/14 05:24:37;;;;;;;7.30;1.70;;;;;;;23.62;59.85;99907.54;108891;1260;60492;-62
2023/07/14 05:27:26;;;;;;;6.20;1.20;;;;;;;23.98;56.79;99906.29;109027;1260;72957;-62
2023/07/14 05:30:22;;;;;;;6.70;1.30;;;;;;;24.09;55.28;99910.33;109003;1259;66313;-62
2023/07/14 05:33:12;;;;;;;7.10;1.30;;;;;;;24.25;54.80;99912.77;108911;1260;73717;-64
2023/07/14 05:36:00;;;;;;;5.90;1.10;;;;;;;24.48;53.07;99913.96;109041;1259;57378;-62
2023/07/14 05:38:50;;;;;;;7.60;1.10;;;;;;;24.57;53.53;99915.31;108918;1260;58774;-69
2023/07/14 05:41:38;;;;;;;6.30;1.30;;;;;;;24.88;51.43;99914.11;109057;1260;72364;-68
2023/07/14 05:44:30;;;;;;;7.60;1.40;;;;;;;24.72;51.99;99914.44;108832;1259;65730;-69
2023/07/14 05:47:23;;;;;;;8.00;1.40;;;;;;;25.05;50.97;99912.80;108971;1259;71106;-64
2023/07/14 05:50:14;;;;;;;6.20;1.20;;;;;;;25.14;50.67;99908.60;108983;1259;57438;-68
2023/07/14 05:53:03;;;;;;;8.10;1.10;;;;;;;25.53;49.62;99909.08;108783;1263;58721;-69
2023/07/14 05:55:52;;;;;;;6.50;1.30;;;;;;;25.70;48.40;99908.64;108907;1260;72929;-68
2023/07/14 05:58:40;;;;;;;8.00;1.50;;;;;;;25.85;47.53;99909.98;108989;1259;69308;-66
2023/07/14 06:01:30;;;;;;;7.10;1.20;;;;;;;25.74;48.08;99910.58;108933;1259;73039;-70
2023/07/14 06:04:22;;;;;;;5.80;1.30;;;;;;;25.53;48.70;99913.48;108909;1258;57278;-64
2023/07/14 06:07:16;;;;;;;8.20;1.50;;;;;;;25.02;49.96;99914.50;108984;1259;60414;-66
2023/07/14 06:10:10;;;;;;;6.90;1.40;;;;;;;25.31;48.83;99914.52;108930;1259;73000;-67
2023/07/14 06:12:57;;;;;;;6.30;1.50;;;;;;;25.75;47.78;99920.88;109052;1260;66622;-65
2023/07/14 06:15:50;;;;;;;6.50;1.40;;;;;;;26.26;46.33;99926.01;108908;1259;73309;-64
2023/07/14 06:18:39;;;;;;;5.90;1.40;;;;;;;26.72;45.00;99917.60;109015;1258;58043;-66
2023/07/14 06:21:31;;;;;;;5.80;1.20;;;;;;;27.12;43.92;99916.90;108887;1257;60241;-66
2023/07/14 06:24:18;;;;;;;6.40;1.10;;;;;;;27.20;43.09;99918.43;109014;1257;73025;-67
2023/07/14 06:27:08;;;;;;;7.70;1.10;;;;;;;27.09;43.44;99920.98;109048;1257;69379;-67
2023/07/14 06:29:58;;;;;;;7.10;1.20;;;;;;;26.24;44.39;99924.88;108931;1257;71135;-67
2023/07/14 06:32:49;;;;;;;8.30;1.70;;;;;;;25.52;46.01;99919.25;108878;1257;57276;-67
2023/07/14 06:35:40;;;;;;;7.20;1.60;;;;;;;25.60;45.62;99921.05;108958;1257;58897;-69
2023/07/14 06:38:29;;;;;;;7.00;1.60;;;;;;;26.04;44.92;99916.23;108957;1257;71859;-67
2023/07/14 06:41:17;;;;;;;7.80;1.50;;;;;;;26.51;43.36;99923.84;109016;1258;67193;-69
2023/07/14 06:44:08;;;;;;;7.40;1.60;;;;;;;26.70;42.25;99922.88;108758;1264;71731;-66
2023/07/14 06:47:14;;;;;;;7.00;1.10;;;;;;;27.40;41.60;99924.36;108805;1261;57485;-67
2023/07/14 06:50:03;;;;;;;8.20;1.40;;;;;;;27.18;41.96;99922.58;108823;1263;60137;-66
2023/07/14 06:52:52;;;;;;;7.50;1.10;;;;;;;26.99;42.08;99920.65;108681;1261;72854;-72
2023/07/14 06:55:43;;;;;;;7.80;1.30;;;;;;;27.56;41.54;99929.17;108767;1263;67995;-69
2023/07/14 06:58:31;;;;;;;6.50;1.10;;;;;;;28.36;39.28;99924.42;108795;1264;72741;-69
2023/07/14 07:01:21;;;;;;;6.30;1.20;;;;;;;29.00;37.51;99927.23;108832;1263;57460;-69
2023/07/14 07:04:10;;;;;;;5.10;1.00;;;;;;;29.05;36.98;99929.56;108839;1262;60336;-74
2023/07/14 07:06:58;;;;;;;5.30;1.10;;;;;;;29.38;36.62;99924.15;108783;1262;72686;-70
2023/07/14 07:09:47;;;;;;;5.70;1.00;;;;;;;29.78;35.45;99922.95;108872;1262;66801;-68
2023/07/14 07:12:35;;;;;;;7.70;1.20;;;;;;;30.12;35.04;99924.48;108539;1265;71451;-69
2023/07/14 07:15:26;;;;;;;5.90;1.10;;;;;;;30.09;34.29;99922.02;108443;1268;58063;-71
2023/07/14 07:18:19;;;;;;;6.70;1.20;;;;;;;29.48;35.68;99926.30;108731;1261;61327;-70
2023/07/14 07:21:12;;;;;;;7.70;1.40;;;;;;;28.87;37.24;99935.84;108742;1263;73108;-71
2023/07/14 07:24:03;;;;;;;5.80;1.50;;;;;;;29.44;35.89;99925.84;108681;1262;67781;-71
2023/07/14 07:26:51;;;;;;;7.20;1.10;;;;;;;29.91;34.31;99920.59;108760;1262;71127;-71
2023/07/14 07:29:41;;;;;;;5.50;1.10;;;;;;;30.34;33.83;99922.38;108590;1263;58379;-69
2023/07/14 07:32:30;;;;;;;6.20;1.10;;;;;;;29.74;34.57;99923.38;108745;1263;60987;-68
2023/07/14 07:35:17;;;;;;;5.70;1.20;;;;;;;29.39;35.16;99923.25;108580;1263;73127;-69
2023/07/14 07:38:07;;;;;;;6.60;1.30;;;;;;;29.67;34.54;99926.50;108821;1263;67710;-71
2023/07/14 07:40:59;;;;;;;6.20;1.30;;;;;;;29.72;34.05;99918.90;108676;1262;72757;-68
2023/07/14 07:43:48;;;;;;;5.20;1.10;;;;;;;30.01;33.04;99923.54;108874;1257;57569;-67
2023/07/14 07:46:37;;;;;;;5.30;0.90;;;;;;;30.35;32.76;99922.05;108957;1257;61102;-70
2023/07/14 07:49:26;;;;;;;6.00;1.20;;;;;;;29.44;33.55;99922.34;108841;1257;73868;-69
2023/07/14 07:52:16;;;;;;;4.20;0.90;;;;;;;29.37;33.80;99925.05;108932;1257;68764;-69
2023/07/14 07:55:07;;;;;;;5.80;1.10;;;;;;;30.03;32.73;99925.05;108843;1257;71550;-70
2023/07/14 07:57:55;;;;;;;6.00;1.00;;;;;;;30.78;32.03;99918.55;108955;1257;57373;-70
2023/07/14 08:00:43;;;;;;;6.70;1.00;;;;;;;31.07;31.43;99922.67;108957;1257;60377;-70
2023/07/14 08:03:33;;;;;;;4.90;1.10;;;;;;;31.25;30.53;99917.70;108948;1257;72543;-69
2023/07/14 08:06:22;;;;;;;7.20;1.00;;;;;;;31.25;30.46;99919.46;109014;1257;66453;-76
2023/07/14 08:09:12;;;;;;;6.40;1.10;;;;;;;31.26;30.62;99923.02;108988;1257;72780;-78
2023/07/14 08:11:59;;;;;;;5.00;0.90;;;;;;;32.20;29.44;99918.61;109027;1257;57313;-76
2023/07/14 08:14:55;;;;;;;6.90;1.10;;;;;;;32.98;28.10;99925.70;109026;1257;60348;-78
2023/07/14 08:17:57;;;;;;;7.90;1.20;;;;;;;34.04;27.33;99917.20;109056;1257;72854;-76
2023/07/14 08:20:48;;;;;;;5.60;1.10;;;;;;;34.87;26.49;99915.23;108951;1257;67915;-76
2023/07/14 08:23:40;;;;;;;6.30;0.80;;;;;;;34.61;26.54;99910.69;108941;1257;73864;-73
2023/07/14 08:26:31;;;;;;;4.20;0.80;;;;;;;34.79;26.13;99924.70;108999;1257;57993;-78
2023/07/14 08:29:54;;;;;;;5.00;1.00;;;;;;;34.85;26.30;99921.86;109005;1257;60221;-75
2023/07/14 08:32:46;;;;;;;5.70;0.90;;;;;;;34.94;25.83;99918.83;108954;1257;73047;-75
2023/07/14 08:35:42;;;;;;;5.80;0.90;;;;;;;34.98;25.58;99913.67;108866;1257;69040;-76
2023/07/14 08:38:34;;;;;;;4.90;0.80;;;;;;;34.82;25.21;99909.78;108924;1257;71941;-76
2023/07/14 08:41:38;;;;;;;4.50;0.80;;;;;;;34.08;25.69;99911.95;108916;1257;58748;-76
2023/07/14 08:45:03;;;;;;;5.60;0.90;;;;;;;34.45;25.55;99914.85;109018;1257;60417;-74
2023/07/14 08:48:37;;;;;;;5.20;0.90;;;;;;;34.48;25.09;99913.74;109013;1257;73134;-75
2023/07/14 08:51:40;;;;;;;4.80;1.00;;;;;;;34.13;25.89;99909.90;109023;1257;66689;-74
2023/07/14 08:54:47;;;;;;;5.50;0.90;;;;;;;34.21;25.46;99914.14;108992;1257;73765;-72
2023/07/14 08:57:56;;;;;;;5.70;1.00;;;;;;;34.51;25.48;99912.56;109062;1257;57261;-75
2023/07/14 09:01:02;;;;;;;5.90;1.00;;;;;;;35.11;24.58;99909.55;108880;1257;60946;-71
2023/07/14 09:04:00;;;;;;;4.80;0.70;;;;;;;34.56;25.01;99911.71;108822;1262;71732;-75
2023/07/14 09:06:48;;;;;;;4.80;1.00;;;;;;;34.59;25.48;99913.09;108902;1262;67430;-75
2023/07/14 09:09:40;;;;;;;6.60;0.90;;;;;;;34.70;25.11;99907.89;108606;1268;71463;-75
2023/07/14 09:12:40;;;;;;;5.60;0.90;;;;;;;34.70;25.49;99903.95;108511;1266;57802;-75
2023/07/14 09:15:29;;;;;;;6.20;1.20;;;;;;;34.94;25.05;99905.22;108331;1267;61371;-72
2023/07/14 09:19:10;;;;;;;4.70;0.90;;;;;;;34.81;25.21;99906.64;108367;1267;72959;-74
2023/07/14 09:22:14;;;;;;;5.40;0.80;;;;;;;34.82;25.16;99910.42;107677;1275;66639;-73
2023/07/14 09:25:50;;;;;;;5.70;0.90;;;;;;;35.38;24.17;99913.98;107833;1275;71471;-74
2023/07/14 09:28:46;;;;;;;5.30;0.90;;;;;;;34.72;24.54;99912.23;107701;1275;57344;-75
2023/07/14 09:32:01;;;;;;;6.20;1.00;;;;;;;34.42;25.36;99911.89;107672;1276;60305;-73
2023/07/14 09:35:00;;;;;;;6.70;1.00;;;;;;;34.86;25.16;99909.20;107986;1270;73143;-72
2023/07/14 09:38:07;;;;;;;4.00;0.80;;;;;;;34.43;25.45;99910.09;108188;1270;66623;-76
2023/07/14 09:41:03;;;;;;;4.70;0.90;;;;;;;32.91;26.69;99914.23;108471;1265;73779;-74
2023/07/14 09:43:58;;;;;;;8.40;1.20;;;;;;;32.02;28.12;99914.15;108627;1265;57932;-75
2023/07/14 09:46:50;;;;;;;5.70;1.00;;;;;;;31.01;30.33;99916.48;108492;1267;58775;-71
2023/07/14 09:49:51;;;;;;;6.50;1.00;;;;;;;31.18;31.01;99910.20;108416;1265;71895;-72
2023/07/14 09:53:06;;;;;;;6.10;1.30;;;;;;;32.06;30.34;99907.80;108511;1267;66643;-74
2023/07/14 09:56:12;;;;;;;7.00;1.10;;;;;;;31.45;30.64;99914.69;108562;1265;71832;-76
2023/07/14 09:59:14;;;;;;;7.10;1.30;;;;;;;30.98;31.49;99914.45;108958;1257;57351;-77
2023/07/14 10:02:15;;;;;;;6.20;1.00;;;;;;;30.16;33.14;99917.56;109050;1257;59655;-78
2023/07/14 10:05:41;;;;;;;7.30;1.30;;;;;;;29.22;34.68;99922.86;108985;1257;73636;-73
2023/07/14 10:08:50;;;;;;;6.10;1.00;;;;;;;28.24;36.51;99927.60;109159;1257;67782;-68
2023/07/14 10:11:49;;;;;;;6.80;1.20;;;;;;;27.18;38.57;99925.43;108870;1257;71644;-63
2023/07/14 10:14:47;;;;;;;5.70;1.30;;;;;;;26.14;41.16;99928.41;109103;1257;57892;-72
2023/07/14 10:17:44;;;;;;;7.40;1.40;;;;;;;25.17;45.93;99928.02;109034;1257;60055;-76
2023/07/14 10:20:39;;;;;;;7.50;1.50;;;;;;;24.34;48.39;99929.21;109020;1257;71463;-76
2023/07/14 10:23:37;;;;;;;7.60;1.50;;;;;;;23.81;52.97;99928.82;108748;1262;66425;-68
2023/07/14 10:26:36;;;;;;;6.20;1.50;;;;;;;23.58;53.78;99930.68;108426;1263;73555;-63
2023/07/14 10:30:05;;;;;;;7.20;1.40;;;;;;;24.67;52.29;99932.82;108425;1266;57825;-72
2023/07/14 10:33:00;;;;;;;6.10;1.30;;;;;;;25.36;48.98;99929.02;108069;1273;59507;-69
2023/07/14 10:36:09;;;;;;;8.30;1.40;;;;;;;25.43;48.41;99930.85;107901;1273;71528;-68
2023/07/14 10:39:11;;;;;;;6.00;1.40;;;;;;;24.76;48.97;99944.45;107948;1273;66770;-73
2023/07/14 10:42:04;;;;;;;7.90;1.60;;;;;;;23.54;51.88;99955.70;108072;1272;71235;-73
2023/07/14 10:44:54;;;;;;;7.10;1.30;;;;;;;22.45;56.41;99952.37;107856;1272;57356;-74
2023/07/14 10:48:16;;;;;;;5.40;1.50;;;;;;;21.75;58.40;99954.95;107868;1273;60605;-73
2023/07/14 10:51:36;;;;;;;6.50;1.40;;;;;;;21.12;59.10;99954.18;107463;1276;73103;-71
2023/07/14 10:55:03;;;;;;;6.30;1.40;;;;;;;20.63;61.22;99954.77;107645;1276;66498;-73
2023/07/14 10:58:19;;;;;;;5.40;1.50;;;;;;;20.46;63.70;99957.94;107777;1273;70456;-73
2023/07/14 11:01:28;;;;;;;6.00;1.90;;;;;;;20.50;66.06;99952.59;107945;1271;57391;-76
2023/07/14 11:04:32;;;;;;;6.40;1.70;;;;;;;20.55;64.95;99942.25;107758;1273;59294;-76
2023/07/14 11:07:33;;;;;;;5.60;1.50;;;;;;;20.75;65.50;99945.62;107654;1273;72949;-76
2023/07/14 11:10:57;;;;;;;5.90;1.60;;;;;;;21.04;65.35;99940.02;108496;1267;67949;-73
2023/07/14 11:14:18;;;;;;;5.80;1.50;;;;;;;21.51;64.22;99933.77;108549;1267;71515;-76
2023/07/14 11:17:26;;;;;;;6.30;1.60;;;;;;;22.60;62.36;99938.69;108598;1266;57341;-69
2023/07/14 11:20:24;;;;;;;6.00;1.60;;;;;;;23.75;57.72;99939.43;108537;1267;59007;-69
2023/07/14 11:23:39;;;;;;;5.60;1.60;;;;;;;24.82;53.38;99931.66;108562;1267;73204;-72
2023/07/14 11:26:39;;;;;;;6.70;1.40;;;;;;;25.86;50.09;99924.73;108546;1267;68969;-71
2023/07/14 11:29:42;;;;;;;6.70;1.40;;;;;;;26.51;47.55;99928.15;108976;1257;72639;-75
2023/07/14 11:33:05;;;;;;;6.00;1.70;;;;;;;26.91;47.62;99921.36;108939;1257;57972;-73
2023/07/14 11:36:42;;;;;;;6.40;1.30;;;;;;;26.76;45.70;99926.09;109075;1257;60409;-75
2023/07/14 11:39:52;;;;;;;5.40;1.20;;;;;;;26.70;46.15;99922.50;108302;1269;71669;-70
2023/07/14 11:42:42;;;;;;;6.90;1.40;;;;;;;26.49;47.19;99924.08;108227;1270;68001;-70
2023/07/14 11:45:41;;;;;;;5.50;1.40;;;;;;;26.51;46.80;99923.51;108229;1270;72621;-71
2023/07/14 11:49:01;;;;;;;7.80;1.60;;;;;;;26.02;46.42;99917.34;108350;1270;58061;-72
2023/07/14 11:52:12;;;;;;;6.20;1.40;;;;;;;25.70;47.15;99916.03;108107;1269;60207;-71
2023/07/14 11:55:23;;;;;;;6.30;1.60;;;;;;;25.53;45.49;99913.69;108287;1270;72025;-74
2023/07/14 11:58:20;;;;;;;6.50;1.40;;;;;;;25.26;45.97;99912.77;108398;1269;66661;-74
2023/07/14 12:01:48;;;;;;;6.70;1.50;;;;;;;25.14;47.14;99917.90;108277;1270;71483;-73
2023/07/14 12:04:36;;;;;;;9.10;1.60;;;;;;;24.80;47.54;99932.73;108213;1269;57841;-71
2023/07/14 12:07:30;;;;;;;7.40;1.50;;;;;;;24.12;50.35;99939.92;108181;1269;60747;-68
2023/07/14 12:10:37;;;;;;;7.50;1.50;;;;;;;23.53;52.89;99947.85;108436;1266;73037;-70
2023/07/14 12:13:41;;;;;;;7.60;1.80;;;;;;;23.07;55.19;99937.59;108547;1267;66704;-72
2023/07/14 12:16:46;;;;;;;6.70;1.50;;;;;;;22.73;56.36;99938.71;108892;1257;72474;-72
2023/07/14 12:19:53;;;;;;;6.40;1.70;;;;;;;22.43;57.12;99947.08;109008;1257;57826;-70
2023/07/14 12:23:04;;;;;;;7.70;1.70;;;;;;;22.27;57.60;99946.58;109001;1257;59157;-74
2023/07/14 12:26:11;;;;;;;8.50;1.60;;;;;;;22.27;59.41;99942.25;109053;1257;72963;-71
2023/07/14 12:29:16;;;;;;;6.20;1.60;;;;;;;22.40;58.55;99941.48;108806;1257;68391;-72
2023/07/14 12:32:19;;;;;;;6.30;1.60;;;;;;;22.44;56.69;99936.23;108967;1257;73049;-74
2023/07/14 12:35:16;;;;;;;6.50;2.10;;;;;;;22.60;57.04;99933.48;109021;1257;57870;-70
2023/07/14 12:38:15;;;;;;;7.90;1.60;;;;;;;22.82;56.54;99932.45;109031;1257;60391;-71
2023/07/14 12:41:06;;;;;;;7.50;1.50;;;;;;;22.92;54.98;99930.16;109059;1257;73274;-72
2023/07/14 12:44:00;;;;;;;6.00;1.50;;;;;;;23.03;52.97;99929.18;109057;1257;67623;-72
2023/07/14 12:46:51;;;;;;;8.40;1.60;;;;;;;23.02;52.65;99927.14;109033;1257;71475;-71
2023/07/14 12:49:42;;;;;;;6.20;1.60;;;;;;;23.19;53.33;99921.48;108991;1257;57850;-70
2023/07/14 12:52:34;;;;;;;5.40;1.30;;;;;;;23.24;51.41;99923.00;109080;1257;57876;-72
2023/07/14 12:55:32;;;;;;;5.90;1.60;;;;;;;22.99;51.82;99926.42;109062;1257;72168;-69
2023/07/14 12:58:24;;;;;;;6.10;1.20;;;;;;;22.87;52.22;99925.59;108969;1257;68388;-72
2023/07/14 13:01:17;;;;;;;4.90;1.30;;;;;;;22.71;51.97;99924.77;108991;1257;72532;-73
2023/07/14 13:04:15;;;;;;;6.70;2.10;;;;;;;22.64;52.51;99922.10;109073;1257;57974;-70
2023/07/14 13:07:11;;;;;;;7.10;1.90;;;;;;;22.78;52.90;99917.00;109024;1257;58947;-72
2023/07/14 13:10:06;;;;;;;6.40;1.60;;;;;;;22.96;52.13;99921.73;109096;1258;73188;-69
2023/07/14 13:12:57;;;;;;;6.10;1.30;;;;;;;23.21;51.99;99914.60;108959;1258;67680;-73
2023/07/14 13:15:50;;;;;;;5.70;1.40;;;;;;;23.59;50.84;99916.27;108866;1259;72788;-76
2023/07/14 13:18:39;;;;;;;7.00;1.50;;;;;;;23.89;49.20;99914.98;108897;1258;58670;-72
2023/07/14 13:21:37;;;;;;;5.80;1.20;;;;;;;24.00;48.89;99904.95;108997;1259;60125;-69
2023/07/14 13:24:28;;;;;;;5.30;1.00;;;;;;;24.00;49.34;99903.45;109076;1258;71844;-71
2023/07/14 13:27:19;;;;;;;5.00;1.20;;;;;;;23.85;48.74;99902.02;108951;1258;67707;-72
2023/07/14 13:30:32;;;;;;;6.60;1.10;;;;;;;23.64;48.95;99912.61;108870;1259;71123;-73
2023/07/14 13:33:27;;;;;;;5.80;1.40;;;;;;;23.56;49.03;99917.94;108893;1258;57809;-74
2023/07/14 13:36:26;;;;;;;7.20;1.60;;;;;;;23.40;49.09;99918.94;108980;1258;60169;-70
2023/07/14 13:39:26;;;;;;;5.20;1.10;;;;;;;23.48;49.58;99919.35;108896;1259;72801;-71
2023/07/14 13:42:24;;;;;;;6.40;1.20;;;;;;;23.68;48.81;99916.81;109017;1259;66599;-70